Time;durP1;ratioP1;P1;durP2;ratioP2;P2;SDS_P1;SDS_P2;PMS_P1;PMS_P2;Temp;Humidity;BMP_temperature;BMP_pressure;BME280_temperature;BME280_humidity;BME280_pressure;Samples;Min_cycle;Max_cycle;Signal;HPM_P1;HPM_P2
2022/07/19 00:00:56;;;;;;;5.72;4.28;;;;;;;14.15;93.87;93621.63;2128614;27;20062;-76
2022/07/19 00:01:57;;;;;;;3.90;3.53;;;;;;;14.23;93.88;93625.63;2130544;27;20166;-75
2022/07/19 00:02:58;;;;;;;5.85;3.90;;;;;;;14.17;94.90;93625.38;2130145;27;20048;-76
2022/07/19 00:20:12;;;;;;;7.45;3.92;;;;;;;13.98;94.62;93610.91;2124003;27;20043;-77
2022/07/19 00:21:13;;;;;;;4.72;4.22;;;;;;;13.79;95.47;93614.50;2129358;27;20496;-76
2022/07/19 00:22:14;;;;;;;5.88;3.63;;;;;;;13.83;95.33;93615.19;2129588;27;20027;-77
2022/07/19 00:23:15;;;;;;;5.03;4.05;;;;;;;13.84;95.28;93614.00;2129043;27;20023;-77
2022/07/19 00:24:15;;;;;;;7.20;3.92;;;;;;;13.73;96.13;93613.50;2130212;27;20118;-76
2022/07/19 00:25:16;;;;;;;6.18;4.30;;;;;;;13.75;95.84;93609.22;2126310;27;20054;-76
2022/07/19 00:26:17;;;;;;;6.70;3.78;;;;;;;13.64;96.34;93605.28;2130249;27;20508;-76
2022/07/19 00:27:18;;;;;;;6.78;4.05;;;;;;;13.74;95.74;93610.41;2129072;27;20448;-75
2022/07/19 00:28:19;;;;;;;6.60;3.80;;;;;;;13.57;97.11;93615.06;2129607;27;20105;-74
2022/07/19 00:29:20;;;;;;;10.60;4.35;;;;;;;13.68;96.18;93605.97;2129713;27;20054;-76
2022/07/19 00:30:21;;;;;;;7.43;3.90;;;;;;;13.60;95.99;93613.44;2129087;27;20038;-75
2022/07/19 00:31:23;;;;;;;6.78;4.30;;;;;;;13.68;96.31;93611.34;2119530;27;20423;-72
2022/07/19 00:32:24;;;;;;;6.22;4.28;;;;;;;13.61;96.88;93620.34;2119976;27;20027;-75
2022/07/19 00:33:25;;;;;;;8.98;4.13;;;;;;;13.64;96.14;93614.09;2129790;27;20113;-74
2022/07/19 00:34:26;;;;;;;6.32;4.00;;;;;;;13.64;96.21;93607.97;2128707;27;20383;-75
2022/07/19 00:35:27;;;;;;;7.72;4.00;;;;;;;13.60;96.98;93616.13;2128850;27;20055;-75
2022/07/19 00:36:28;;;;;;;8.43;4.20;;;;;;;13.49;96.77;93613.72;2130094;27;20045;-75
2022/07/19 00:37:29;;;;;;;6.40;4.32;;;;;;;13.51;98.78;93613.28;2129822;27;20110;-76
2022/07/19 00:38:30;;;;;;;5.60;4.03;;;;;;;13.52;97.46;93612.09;2129805;27;20022;-76
2022/07/19 00:39:31;;;;;;;7.63;4.15;;;;;;;13.49;97.95;93608.34;2127310;27;20031;-76
2022/07/19 00:40:32;;;;;;;7.00;4.25;;;;;;;13.44;98.14;93608.84;2120045;27;20027;-76
2022/07/19 00:41:42;;;;;;;7.28;4.47;;;;;;;13.38;99.15;93607.84;2121483;27;20024;-76
2022/07/19 00:42:43;;;;;;;8.13;4.47;;;;;;;13.46;97.98;93603.81;2129107;27;20114;-76
2022/07/19 00:43:44;;;;;;;9.07;4.47;;;;;;;13.40;98.56;93610.13;2129216;27;20050;-76
2022/07/19 00:44:45;;;;;;;6.30;4.45;;;;;;;13.28;100.00;93603.50;2121363;27;20128;-76
2022/07/19 00:45:46;;;;;;;8.38;4.72;;;;;;;13.31;99.40;93603.41;2119755;27;20043;-76
2022/07/19 00:46:48;;;;;;;5.75;3.92;;;;;;;13.34;99.17;93602.59;2127899;27;20026;-75
2022/07/19 00:47:49;;;;;;;9.65;4.50;;;;;;;13.16;100.00;93599.50;2130294;27;20031;-75
2022/07/19 00:48:50;;;;;;;6.25;4.22;;;;;;;13.16;100.00;93602.19;2128462;27;20023;-76
2022/07/19 00:49:51;;;;;;;7.53;4.32;;;;;;;13.27;99.45;93597.38;2121172;27;20125;-76
2022/07/19 00:50:52;;;;;;;12.13;4.90;;;;;;;13.31;99.81;93603.41;2120982;27;20015;-76
2022/07/19 00:51:55;;;;;;;4.60;4.07;;;;;;;13.35;99.24;93604.09;2131004;27;20034;-76
2022/07/19 00:53:05;;;;;;;7.85;4.63;;;;;;;13.34;98.99;93601.81;2119385;27;20023;-76
2022/07/19 00:54:07;;;;;;;;;;;;;;;13.20;100.00;93602.13;2119497;27;20032;-76
2022/07/19 00:55:09;;;;;;;5.65;4.25;;;;;;;13.26;100.00;93595.13;2129611;27;19946;-76
2022/07/19 00:56:12;;;;;;;5.97;4.07;;;;;;;13.21;100.00;93600.94;2119679;27;20034;-76
2022/07/19 00:57:15;;;;;;;10.95;4.47;;;;;;;13.20;100.00;93596.75;2117307;27;20027;-76
2022/07/19 00:58:17;;;;;;;5.97;4.38;;;;;;;13.10;100.00;93603.88;2129969;27;20052;-76
2022/07/19 00:59:18;;;;;;;5.97;3.88;;;;;;;13.19;100.00;93600.63;2127888;27;20027;-76
2022/07/19 01:00:19;;;;;;;8.75;4.45;;;;;;;13.15;100.00;93599.94;2120837;27;20015;-76
2022/07/19 01:01:20;;;;;;;5.90;4.43;;;;;;;13.22;100.00;93603.25;2116683;27;20028;-73
2022/07/19 01:02:22;;;;;;;5.40;4.53;;;;;;;13.07;100.00;93600.09;2129892;27;20105;-76
2022/07/19 01:03:25;;;;;;;7.13;4.20;;;;;;;13.11;100.00;93598.09;2130537;27;20083;-76
2022/07/19 01:04:27;;;;;;;6.53;4.10;;;;;;;13.03;100.00;93606.72;2128268;27;20069;-76
2022/07/19 01:05:28;;;;;;;6.63;4.10;;;;;;;13.06;100.00;93598.59;2128953;27;20026;-76
2022/07/19 01:06:29;;;;;;;5.78;4.22;;;;;;;13.15;100.00;93603.38;2127927;27;20022;-76
2022/07/19 01:07:30;;;;;;;7.57;3.85;;;;;;;13.21;100.00;93603.63;2129500;27;20110;-76
2022/07/19 01:08:31;;;;;;;6.05;4.35;;;;;;;13.10;100.00;93596.59;2129644;27;20399;-76
2022/07/19 01:09:36;;;;;;;7.82;4.15;;;;;;;13.06;100.00;93597.84;2129424;27;20069;-75
2022/07/19 01:10:37;;;;;;;7.20;4.38;;;;;;;13.01;100.00;93599.09;2128608;27;20027;-76
2022/07/19 01:11:39;;;;;;;5.05;4.00;;;;;;;12.94;100.00;93596.56;2119898;27;20019;-76
2022/07/19 01:12:42;;;;;;;5.65;4.40;;;;;;;12.99;100.00;93604.13;2120298;27;20039;-76
2022/07/19 01:13:43;;;;;;;8.48;4.00;;;;;;;12.93;100.00;93599.69;2128760;27;20039;-76
2022/07/19 01:14:44;;;;;;;6.97;4.45;;;;;;;12.97;100.00;93603.78;2128527;27;20031;-76
2022/07/19 01:15:45;;;;;;;7.53;4.80;;;;;;;12.91;100.00;93596.69;2128802;27;20026;-76
2022/07/19 01:16:46;;;;;;;11.38;5.00;;;;;;;12.91;100.00;93600.13;2128057;27;20058;-76
2022/07/19 01:17:48;;;;;;;7.05;5.13;;;;;;;13.04;100.00;93598.28;2128229;27;20038;-76
2022/07/19 01:18:50;;;;;;;8.82;4.07;;;;;;;12.88;100.00;93594.81;2129834;27;20031;-76
2022/07/19 01:19:52;;;;;;;7.80;4.60;;;;;;;12.97;100.00;93593.06;2126971;27;20053;-77
2022/07/19 01:20:54;;;;;;;5.70;4.28;;;;;;;12.96;100.00;93594.25;2129022;27;20033;-76
2022/07/19 01:21:55;;;;;;;6.57;4.32;;;;;;;12.90;100.00;93595.91;2119376;27;20023;-76
2022/07/19 01:22:56;;;;;;;5.53;3.88;;;;;;;12.83;100.00;93590.72;2119908;27;20118;-76
2022/07/19 01:23:57;;;;;;;6.18;4.57;;;;;;;12.75;100.00;93589.34;2128405;27;20500;-76
2022/07/19 01:24:58;;;;;;;6.43;4.00;;;;;;;12.80;100.00;93594.22;2128910;27;20026;-76
2022/07/19 01:25:59;;;;;;;6.53;4.40;;;;;;;12.79;100.00;93590.03;2129548;27;20034;-76
2022/07/19 01:27:00;;;;;;;9.90;4.60;;;;;;;12.88;100.00;93592.91;2128868;27;20082;-77
2022/07/19 01:28:04;;;;;;;6.05;4.10;;;;;;;12.84;100.00;93592.22;2128403;27;20030;-76
2022/07/19 01:29:05;;;;;;;5.30;4.80;;;;;;;12.75;100.00;93586.69;2129139;27;20431;-76
2022/07/19 01:30:15;;;;;;;6.18;4.55;;;;;;;12.62;100.00;93588.50;2127719;27;20041;-76
2022/07/19 01:31:16;;;;;;;4.72;4.32;;;;;;;12.66;100.00;93586.50;2127229;27;20469;-76
2022/07/19 01:32:17;;;;;;;6.35;4.57;;;;;;;12.71;100.00;93588.69;2128392;27;20039;-77
2022/07/19 01:33:18;;;;;;;7.20;4.60;;;;;;;12.76;100.00;93585.50;2128745;27;20019;-76
2022/07/19 01:34:25;;;;;;;5.85;4.50;;;;;;;12.77;100.00;93579.72;2129525;27;20057;-76
2022/07/19 01:35:27;;;;;;;5.50;3.92;;;;;;;12.70;100.00;93581.81;2128601;27;20045;-75
2022/07/19 01:36:27;;;;;;;8.45;4.65;;;;;;;12.73;100.00;93579.06;2127007;27;20311;-76
2022/07/19 01:37:28;;;;;;;5.68;4.35;;;;;;;12.73;100.00;93587.09;2129398;27;20043;-75
2022/07/19 01:38:29;;;;;;;8.70;4.50;;;;;;;12.69;100.00;93583.75;2128319;27;20030;-76
2022/07/19 01:39:30;;;;;;;8.80;4.55;;;;;;;12.65;100.00;93585.00;2128817;27;20023;-76
2022/07/19 01:40:33;;;;;;;9.88;4.75;;;;;;;12.62;100.00;93575.84;2127197;27;20034;-76
2022/07/19 01:41:34;;;;;;;6.97;4.45;;;;;;;12.60;100.00;93584.31;2129087;27;20086;-76
2022/07/19 01:42:35;;;;;;;6.38;4.60;;;;;;;12.59;100.00;93585.47;2129475;27;20029;-76
2022/07/19 01:43:36;;;;;;;8.05;4.57;;;;;;;12.57;100.00;93581.72;2128599;27;20019;-76
2022/07/19 01:44:38;;;;;;;6.82;4.45;;;;;;;12.55;100.00;93582.09;2128509;27;20042;-76
2022/07/19 01:45:39;;;;;;;8.02;4.82;;;;;;;12.51;100.00;93581.44;2128146;27;20376;-76
2022/07/19 01:46:40;;;;;;;5.75;5.10;;;;;;;12.50;100.00;93590.66;2129195;27;20022;-75
2022/07/19 01:47:41;;;;;;;5.68;4.70;;;;;;;12.54;100.00;93580.59;2129522;27;20405;-76
2022/07/19 01:48:42;;;;;;;6.45;4.55;;;;;;;12.48;100.00;93581.53;2128311;27;20042;-76
2022/07/19 01:49:44;;;;;;;10.25;4.40;;;;;;;12.55;100.00;93582.09;2129196;27;20127;-76
2022/07/19 01:50:45;;;;;;;8.52;4.55;;;;;;;12.44;100.00;93580.84;2128841;27;20076;-76
2022/07/19 01:51:45;;;;;;;7.03;4.40;;;;;;;12.52;100.00;93590.25;2128973;27;20023;-74
2022/07/19 01:52:47;;;;;;;7.15;4.70;;;;;;;12.50;100.00;93579.91;2127771;27;20033;-74
2022/07/19 01:53:48;;;;;;;8.95;4.93;;;;;;;12.48;100.00;93584.97;2128574;27;20139;-73
2022/07/19 01:54:48;;;;;;;6.90;4.55;;;;;;;12.48;100.00;93586.88;2128199;27;20147;-75
2022/07/19 01:55:49;;;;;;;8.57;4.75;;;;;;;12.30;100.00;93581.91;2129322;27;20026;-75
2022/07/19 01:56:50;;;;;;;7.35;4.65;;;;;;;12.42;100.00;93578.56;2128715;27;20019;-75
2022/07/19 01:57:51;;;;;;;7.63;4.63;;;;;;;12.46;100.00;93586.53;2129178;27;20026;-75
2022/07/19 01:58:52;;;;;;;5.22;4.60;;;;;;;12.32;100.00;93580.31;2128671;27;20038;-75
2022/07/19 01:59:53;;;;;;;7.57;4.57;;;;;;;12.39;100.00;93573.28;2128110;27;20105;-75
2022/07/19 02:00:54;;;;;;;9.30;4.15;;;;;;;12.42;100.00;93578.56;2128179;27;20037;-76
2022/07/19 02:01:55;;;;;;;7.03;4.40;;;;;;;12.39;100.00;93579.41;2128967;27;20105;-76
2022/07/19 02:02:57;;;;;;;5.30;4.40;;;;;;;12.44;100.00;93575.47;2129294;27;20456;-75
2022/07/19 02:03:57;;;;;;;6.85;4.82;;;;;;;12.43;100.00;93573.97;2127484;27;20456;-75
2022/07/19 02:04:58;;;;;;;6.03;4.40;;;;;;;12.47;100.00;93578.09;2127778;27;20039;-76
2022/07/19 02:05:59;;;;;;;10.55;5.20;;;;;;;12.48;100.00;93573.47;2128988;27;20071;-76
2022/07/19 02:07:00;;;;;;;9.65;4.75;;;;;;;12.39;100.00;93574.03;2128578;27;20057;-76
2022/07/19 02:08:02;;;;;;;5.50;4.63;;;;;;;12.39;100.00;93567.94;2127830;27;20034;-75
2022/07/19 02:09:03;;;;;;;5.97;4.40;;;;;;;12.45;100.00;93567.00;2119429;27;20414;-76
2022/07/19 02:10:05;;;;;;;8.05;4.65;;;;;;;12.40;100.00;93566.75;2118151;27;20040;-75
2022/07/19 02:14:24;;;;;;;;;;;;;;;12.10;100.00;93563.91;2138569;27;20547;-72
2022/07/19 02:15:25;;;;;;;5.85;4.18;;;;;;;12.26;100.00;93562.47;2129746;27;19923;-73
2022/07/19 02:16:27;;;;;;;5.53;4.57;;;;;;;12.26;100.00;93562.47;2130470;27;20384;-73
2022/07/19 02:17:28;;;;;;;6.40;4.15;;;;;;;12.25;100.00;93556.34;2129764;27;20114;-73
2022/07/19 02:18:28;;;;;;;7.30;4.90;;;;;;;12.21;100.00;93558.34;2121151;27;20015;-73
2022/07/19 02:19:30;;;;;;;5.70;4.82;;;;;;;12.16;100.00;93556.16;2120992;27;20027;-73
2022/07/19 02:20:31;;;;;;;9.35;4.85;;;;;;;12.18;100.00;93561.09;2129572;27;20048;-73
2022/07/19 02:21:33;;;;;;;8.68;4.72;;;;;;;12.19;100.00;93557.97;2129817;27;20027;-73
2022/07/19 02:22:34;;;;;;;5.93;5.03;;;;;;;12.23;100.00;93557.91;2130075;27;20023;-74
2022/07/19 02:23:35;;;;;;;7.28;4.68;;;;;;;12.20;100.00;93551.44;2130476;27;20034;-75
2022/07/19 02:24:36;;;;;;;6.50;4.90;;;;;;;12.18;100.00;93558.41;2130176;27;20022;-74
2022/07/19 02:25:37;;;;;;;7.80;5.00;;;;;;;12.05;100.00;93561.72;2128811;27;20529;-75
2022/07/19 02:26:38;;;;;;;7.10;4.68;;;;;;;12.00;100.00;93556.84;2130365;27;20480;-76
2022/07/19 02:27:40;;;;;;;6.13;4.55;;;;;;;11.94;100.00;93552.38;2130284;27;20468;-75
2022/07/19 02:28:41;;;;;;;7.82;5.07;;;;;;;11.98;100.00;93556.50;2130386;27;20035;-77
2022/07/19 02:29:42;;;;;;;8.23;5.03;;;;;;;12.05;100.00;93560.97;2129773;27;20396;-74
2022/07/19 02:30:43;;;;;;;9.05;4.85;;;;;;;12.08;100.00;93555.53;2120357;27;20537;-75
2022/07/19 02:31:44;;;;;;;7.68;4.90;;;;;;;12.09;100.00;93559.72;2120383;27;20030;-75
2022/07/19 02:32:45;;;;;;;7.68;5.30;;;;;;;11.97;100.00;93554.22;2130072;27;20158;-75
2022/07/19 02:33:46;;;;;;;7.38;5.00;;;;;;;11.98;100.00;93555.72;2129937;27;20414;-73
2022/07/19 02:34:47;;;;;;;9.93;5.30;;;;;;;11.87;100.00;93553.28;2128989;27;20034;-74
2022/07/19 02:35:48;;;;;;;8.35;4.72;;;;;;;11.87;100.00;93555.97;2129996;27;20026;-76
2022/07/19 02:36:49;;;;;;;6.30;4.80;;;;;;;11.90;100.00;93557.06;2121171;27;20722;-75
2022/07/19 02:37:50;;;;;;;7.85;4.88;;;;;;;11.83;100.00;93549.91;2120384;27;20027;-76
2022/07/19 02:38:51;;;;;;;6.90;4.78;;;;;;;11.86;100.00;93553.69;2130338;27;20428;-76
2022/07/19 02:39:52;;;;;;;6.05;5.00;;;;;;;11.91;100.00;93550.53;2130052;27;20027;-76
2022/07/19 02:40:54;;;;;;;7.03;5.10;;;;;;;11.96;100.00;93548.13;2128978;27;20065;-77
2022/07/19 02:41:55;;;;;;;5.20;4.70;;;;;;;11.86;100.00;93553.69;2129569;27;20023;-75
2022/07/19 02:42:56;;;;;;;6.55;5.07;;;;;;;11.90;100.00;93543.69;2129990;27;20042;-76
2022/07/19 02:43:57;;;;;;;12.82;4.95;;;;;;;11.88;100.00;93552.09;2129694;27;20030;-76
2022/07/19 02:44:58;;;;;;;6.68;5.25;;;;;;;11.90;100.00;93549.03;2128895;27;20369;-76
2022/07/19 02:45:59;;;;;;;8.55;5.05;;;;;;;11.83;100.00;93547.25;2130426;27;20023;-76
2022/07/19 02:47:00;;;;;;;5.63;4.97;;;;;;;11.86;100.00;93546.41;2129421;27;20516;-76
2022/07/19 02:48:04;;;;;;;8.52;5.32;;;;;;;11.90;100.00;93543.69;2131009;27;20143;-75
2022/07/19 02:49:05;;;;;;;5.05;4.40;;;;;;;11.95;100.00;93540.50;2129980;27;20479;-76
2022/07/19 02:50:06;;;;;;;13.45;5.53;;;;;;;11.92;100.00;93542.09;2129341;27;20095;-75
2022/07/19 02:51:13;;;;;;;6.18;5.13;;;;;;;11.90;100.00;93541.00;2128977;27;20037;-75
2022/07/19 02:52:14;;;;;;;7.40;5.38;;;;;;;11.92;100.00;93550.13;2129835;27;20071;-74
2022/07/19 02:53:15;;;;;;;7.57;5.03;;;;;;;11.93;100.00;93542.84;2120133;27;20107;-75
2022/07/19 02:54:16;;;;;;;7.85;5.22;;;;;;;11.87;100.00;93547.94;2120177;27;20038;-76
2022/07/19 02:55:17;;;;;;;10.00;5.57;;;;;;;11.84;100.00;93544.13;2119455;27;20058;-78
2022/07/19 02:56:18;;;;;;;8.50;5.25;;;;;;;11.77;100.00;93543.50;2121906;27;20050;-76
2022/07/19 02:57:19;;;;;;;7.07;5.22;;;;;;;11.74;100.00;93555.03;2129792;27;20023;-77
2022/07/19 02:58:20;;;;;;;6.80;5.53;;;;;;;11.80;100.00;93545.34;2130387;27;20026;-77
2022/07/19 02:59:21;;;;;;;15.65;5.80;;;;;;;11.77;100.00;93546.19;2130212;27;20041;-76
2022/07/19 03:00:22;;;;;;;9.13;5.25;;;;;;;11.76;100.00;93550.00;2120747;27;20039;-78
2022/07/19 03:01:23;;;;;;;8.82;5.07;;;;;;;11.74;100.00;93547.00;2111358;27;20914;-76
2022/07/19 03:02:24;;;;;;;6.90;4.88;;;;;;;11.76;100.00;93547.34;2121850;27;20102;-76
2022/07/19 03:03:43;;;;;;;6.57;5.28;;;;;;;11.67;100.00;93552.47;2130657;27;20030;-78
2022/07/19 03:04:44;;;;;;;7.20;5.25;;;;;;;11.71;100.00;93547.81;2121377;27;20356;-76
2022/07/19 03:05:45;;;;;;;5.90;4.80;;;;;;;11.74;100.00;93541.66;2123125;27;20015;-76
2022/07/19 03:06:46;;;;;;;5.55;4.97;;;;;;;11.73;100.00;93546.25;2129458;27;20019;-76
2022/07/19 03:07:47;;;;;;;5.38;4.88;;;;;;;11.75;100.00;93543.16;2129537;27;20031;-76
2022/07/19 03:08:48;;;;;;;6.97;5.35;;;;;;;11.63;100.00;93541.84;2129376;27;20056;-75
2022/07/19 03:09:52;;;;;;;8.85;5.50;;;;;;;11.59;100.00;93549.19;2128974;27;20035;-73
2022/07/19 03:10:53;;;;;;;8.90;4.95;;;;;;;11.66;100.00;93546.38;2128316;27;20034;-74
2022/07/19 03:11:54;;;;;;;6.95;5.40;;;;;;;11.67;100.00;93545.19;2129854;27;20148;-73
2022/07/19 03:12:55;;;;;;;8.55;5.35;;;;;;;11.67;100.00;93547.88;2120877;27;20035;-74
2022/07/19 03:13:56;;;;;;;5.32;4.78;;;;;;;11.65;100.00;93544.88;2119716;27;20054;-75
2022/07/19 03:14:57;;;;;;;8.88;4.85;;;;;;;11.70;100.00;93540.97;2121410;27;20066;-75
2022/07/19 03:15:58;;;;;;;6.53;4.97;;;;;;;11.62;100.00;93547.63;2121421;27;20042;-74
2022/07/19 03:16:59;;;;;;;5.38;4.88;;;;;;;11.60;100.00;93543.44;2120644;27;20122;-74
2022/07/19 03:18:00;;;;;;;8.05;5.28;;;;;;;11.52;100.00;93544.72;2120865;27;20035;-75
2022/07/19 03:19:02;;;;;;;12.13;5.47;;;;;;;11.52;100.00;93539.38;2120682;27;20038;-75
2022/07/19 03:20:03;;;;;;;6.93;5.20;;;;;;;11.57;100.00;93543.50;2111543;28;20027;-74
2022/07/19 03:21:04;;;;;;;8.70;5.63;;;;;;;11.49;100.00;93536.75;2112535;28;20024;-75
2022/07/19 03:22:05;;;;;;;7.88;5.18;;;;;;;11.46;100.00;93541.03;2120734;27;20364;-76
2022/07/19 03:23:06;;;;;;;6.65;4.93;;;;;;;11.50;100.00;93543.63;2121396;27;20055;-76
2022/07/19 03:24:08;;;;;;;9.93;5.25;;;;;;;11.54;100.00;93542.38;2120687;27;20134;-75
2022/07/19 03:25:09;;;;;;;6.30;5.40;;;;;;;11.46;100.00;93543.69;2118280;27;20019;-75
2022/07/19 03:26:10;;;;;;;10.88;5.45;;;;;;;11.40;100.00;93536.53;2106585;28;20086;-75
2022/07/19 03:27:11;;;;;;;6.35;5.07;;;;;;;11.39;100.00;93546.50;2115008;27;20061;-75
2022/07/19 03:28:13;;;;;;;6.13;5.53;;;;;;;11.50;100.00;93541.72;2115859;27;20036;-75
2022/07/19 03:29:14;;;;;;;5.90;5.20;;;;;;;11.42;100.00;93537.66;2115113;27;20030;-75
2022/07/19 03:30:16;;;;;;;9.05;5.60;;;;;;;11.43;100.00;93539.16;2115537;27;20022;-75
2022/07/19 03:31:18;;;;;;;6.03;5.45;;;;;;;11.33;100.00;93537.44;2114680;27;20031;-76
2022/07/19 03:32:19;;;;;;;6.57;5.00;;;;;;;11.38;100.00;93541.56;2115488;27;20040;-74
2022/07/19 03:33:20;;;;;;;7.55;5.22;;;;;;;11.43;100.00;93536.47;2115794;27;20023;-75
2022/07/19 03:34:21;;;;;;;5.72;5.07;;;;;;;11.49;100.00;93542.84;2114942;27;20478;-74
2022/07/19 03:35:22;;;;;;;9.68;5.47;;;;;;;11.39;100.00;93538.47;2115915;27;20552;-75
2022/07/19 03:36:23;;;;;;;9.40;5.63;;;;;;;11.37;100.00;93537.34;2114573;27;20618;-75
2022/07/19 03:37:24;;;;;;;7.63;5.40;;;;;;;11.36;100.00;93533.91;2115435;27;20035;-75
2022/07/19 03:38:25;;;;;;;12.60;6.00;;;;;;;11.39;100.00;93535.78;2115246;27;20031;-74
2022/07/19 03:39:25;;;;;;;6.80;5.38;;;;;;;11.31;100.00;93534.41;2116287;27;20080;-75
2022/07/19 03:40:26;;;;;;;5.90;4.90;;;;;;;11.36;100.00;93531.25;2115465;27;20031;-76
2022/07/19 03:41:27;;;;;;;7.20;5.30;;;;;;;11.38;100.00;93534.28;2114448;27;20024;-75
2022/07/19 03:42:28;;;;;;;7.10;5.25;;;;;;;11.35;100.00;93535.09;2105495;28;20078;-75
2022/07/19 03:43:29;;;;;;;7.68;5.38;;;;;;;11.22;100.00;93534.94;2115553;27;20072;-74
2022/07/19 03:44:30;;;;;;;6.07;4.90;;;;;;;11.28;100.00;93532.53;2115362;27;20059;-73
2022/07/19 03:45:31;;;;;;;6.97;5.20;;;;;;;11.28;100.00;93540.56;2115325;27;20028;-74
2022/07/19 03:46:32;;;;;;;10.90;4.93;;;;;;;11.25;100.00;93534.13;2114971;27;20036;-74
2022/07/19 03:47:33;;;;;;;8.77;5.25;;;;;;;11.30;100.00;93530.22;2114697;27;20138;-76
2022/07/19 03:48:35;;;;;;;9.48;5.03;;;;;;;11.26;100.00;93537.56;2115159;27;20080;-75
2022/07/19 03:49:35;;;;;;;6.03;4.57;;;;;;;11.24;100.00;93526.50;2115416;27;20046;-74
2022/07/19 03:50:38;;;;;;;6.43;5.10;;;;;;;11.18;100.00;93534.25;2114812;27;20055;-74
2022/07/19 03:51:38;;;;;;;7.22;5.20;;;;;;;11.19;100.00;93541.09;2115233;27;20110;-76
2022/07/19 03:52:39;;;;;;;5.28;4.75;;;;;;;11.27;100.00;93533.72;2115897;27;20024;-76
2022/07/19 03:53:40;;;;;;;6.65;5.10;;;;;;;11.20;100.00;93537.28;2115341;27;20031;-75
2022/07/19 03:54:41;;;;;;;7.78;5.22;;;;;;;11.16;100.00;93531.22;2115267;27;20481;-76
2022/07/19 03:55:42;;;;;;;5.53;4.90;;;;;;;11.19;100.00;93529.63;2113679;27;20051;-75
2022/07/19 03:56:43;;;;;;;9.73;5.32;;;;;;;11.23;100.00;93535.69;2114507;27;20095;-75
2022/07/19 03:57:44;;;;;;;5.68;4.68;;;;;;;11.26;100.00;93535.63;2114846;27;20080;-75
2022/07/19 03:58:45;;;;;;;7.10;5.10;;;;;;;11.30;100.00;93536.31;2115011;27;20024;-76
2022/07/19 03:59:46;;;;;;;10.32;5.72;;;;;;;11.25;100.00;93528.03;2115399;27;20114;-75
2022/07/19 04:00:47;;;;;;;7.40;5.15;;;;;;;11.23;100.00;93533.75;2114194;27;20369;-76
2022/07/19 04:01:49;;;;;;;7.93;4.75;;;;;;;11.22;100.00;93544.88;2105544;28;20585;-76
2022/07/19 04:02:50;;;;;;;4.90;4.35;;;;;;;11.14;100.00;93536.22;2105891;28;20032;-75
2022/07/19 04:03:51;;;;;;;7.90;5.10;;;;;;;11.16;100.00;93538.50;2114925;27;20019;-75
2022/07/19 04:04:52;;;;;;;10.93;5.07;;;;;;;11.19;100.00;93543.00;2114649;27;20038;-74
2022/07/19 04:05:53;;;;;;;5.22;4.72;;;;;;;11.12;100.00;93541.22;2113401;28;20691;-74
2022/07/19 04:06:55;;;;;;;5.40;4.90;;;;;;;11.02;100.00;93537.56;2116414;27;20032;-76
2022/07/19 04:07:56;;;;;;;5.60;4.63;;;;;;;11.08;100.00;93540.53;2114732;27;20032;-75
2022/07/19 04:08:56;;;;;;;9.40;5.43;;;;;;;11.00;100.00;93536.47;2114934;27;20032;-75
2022/07/19 04:09:59;;;;;;;7.32;5.07;;;;;;;11.06;100.00;93538.28;2115063;27;20031;-74
2022/07/19 04:11:00;;;;;;;7.53;5.07;;;;;;;11.16;100.00;93533.16;2115139;27;20034;-75
2022/07/19 04:12:01;;;;;;;9.32;5.22;;;;;;;11.12;100.00;93543.16;2114863;27;20057;-78
2022/07/19 04:13:03;;;;;;;7.60;5.22;;;;;;;11.15;100.00;93548.44;2113280;28;20042;-76
2022/07/19 04:14:06;;;;;;;8.48;4.93;;;;;;;11.10;100.00;93533.59;2114314;27;20058;-76
2022/07/19 04:15:08;;;;;;;8.32;5.38;;;;;;;11.13;100.00;93533.97;2114844;27;20119;-74
2022/07/19 04:16:09;;;;;;;9.00;5.40;;;;;;;11.18;100.00;93544.94;2114403;27;20030;-76
2022/07/19 04:17:10;;;;;;;7.20;5.35;;;;;;;11.22;100.00;93545.63;2115484;27;20035;-78
2022/07/19 04:18:11;;;;;;;5.95;4.63;;;;;;;11.27;100.00;93542.47;2114619;27;20038;-75
2022/07/19 04:19:12;;;;;;;8.02;4.93;;;;;;;11.24;100.00;93542.56;2115261;27;20028;-75
2022/07/19 04:20:13;;;;;;;8.55;5.22;;;;;;;11.26;100.00;93543.66;2114735;27;20035;-76
2022/07/19 04:21:14;;;;;;;7.57;5.55;;;;;;;11.25;100.00;93544.06;2115633;27;20030;-74
2022/07/19 04:22:15;;;;;;;5.82;5.13;;;;;;;11.16;100.00;93544.59;2115374;27;20034;-75
2022/07/19 04:23:17;;;;;;;10.32;4.68;;;;;;;11.17;100.00;93546.09;2113987;27;20019;-75
2022/07/19 04:24:18;;;;;;;8.63;5.38;;;;;;;11.17;100.00;93545.34;2113323;27;20092;-74
2022/07/19 04:25:19;;;;;;;8.48;5.22;;;;;;;11.21;100.00;93546.81;2115365;27;20068;-75
2022/07/19 04:26:20;;;;;;;10.15;4.78;;;;;;;11.26;100.00;93543.66;2115783;27;20106;-74
2022/07/19 04:27:22;;;;;;;6.25;4.95;;;;;;;11.33;100.00;93548.91;2114861;27;20403;-74
2022/07/19 04:28:24;;;;;;;7.80;5.22;;;;;;;11.29;100.00;93547.44;2114738;27;20914;-75
2022/07/19 04:29:25;;;;;;;6.72;5.32;;;;;;;11.34;100.00;93547.72;2115326;27;20480;-75
2022/07/19 04:30:25;;;;;;;9.23;5.10;;;;;;;11.39;100.00;93549.16;2115236;27;20069;-73
2022/07/19 04:31:26;;;;;;;10.10;5.78;;;;;;;11.39;100.00;93549.16;2114348;27;20105;-75
2022/07/19 04:32:28;;;;;;;8.82;5.25;;;;;;;11.37;100.00;93553.41;2114554;27;20031;-74
2022/07/19 04:33:30;;;;;;;5.75;5.15;;;;;;;11.42;100.00;93545.69;2114868;27;20479;-75
2022/07/19 04:34:30;;;;;;;15.13;6.05;;;;;;;11.42;100.00;93545.69;2114468;27;20035;-75
2022/07/19 04:35:31;;;;;;;6.22;5.43;;;;;;;11.42;100.00;93551.03;2106205;28;20032;-75
2022/07/19 04:36:33;;;;;;;8.55;5.60;;;;;;;11.43;100.00;93549.13;2113977;27;20062;-75
2022/07/19 04:37:34;;;;;;;8.77;5.13;;;;;;;11.50;100.00;93544.38;2108729;28;20614;-74
2022/07/19 04:38:35;;;;;;;7.78;5.65;;;;;;;11.54;100.00;93545.06;2110163;27;20024;-74
2022/07/19 04:39:36;;;;;;;11.63;5.65;;;;;;;11.61;100.00;93546.84;2111241;27;20066;-75
2022/07/19 04:40:37;;;;;;;9.43;5.63;;;;;;;11.58;100.00;93551.09;2112096;28;20027;-75
2022/07/19 04:41:38;;;;;;;6.85;5.10;;;;;;;11.60;100.00;93551.47;2112487;27;20024;-74
2022/07/19 04:42:39;;;;;;;7.07;5.15;;;;;;;11.58;100.00;93551.09;2110257;27;20039;-75
2022/07/19 04:43:40;;;;;;;6.38;4.97;;;;;;;11.53;100.00;93548.91;2111321;27;20507;-74
2022/07/19 04:44:41;;;;;;;5.93;4.57;;;;;;;11.58;100.00;93548.44;2113176;27;20137;-75
2022/07/19 04:45:46;;;;;;;6.68;4.50;;;;;;;11.65;100.00;93547.56;2112802;27;20035;-76
2022/07/19 04:46:47;;;;;;;5.88;5.18;;;;;;;11.71;100.00;93545.91;2113483;27;20054;-75
2022/07/19 04:47:48;;;;;;;9.32;5.22;;;;;;;11.72;100.00;93554.69;2110534;28;20020;-74
2022/07/19 04:48:49;;;;;;;6.40;5.57;;;;;;;11.71;100.00;93551.25;2110985;28;20755;-76
2022/07/19 04:49:50;;;;;;;6.15;5.20;;;;;;;11.77;100.00;93546.94;2110422;28;20056;-76
2022/07/19 04:50:51;;;;;;;7.93;5.32;;;;;;;11.80;100.00;93548.03;2111255;28;20062;-79
2022/07/19 04:51:52;;;;;;;8.82;5.25;;;;;;;11.78;100.00;93547.69;2112470;28;20100;-80
2022/07/19 04:52:53;;;;;;;7.40;4.93;;;;;;;11.83;100.00;93549.91;2110603;28;20020;-79
2022/07/19 04:53:54;;;;;;;5.85;5.10;;;;;;;11.88;100.00;93546.75;2101983;28;20107;-77
2022/07/19 04:54:55;;;;;;;8.60;5.13;;;;;;;11.89;100.00;93548.25;2102785;28;20028;-80
2022/07/19 04:55:56;;;;;;;6.38;4.68;;;;;;;11.94;100.00;93557.72;2121131;27;20031;-79
2022/07/19 04:56:57;;;;;;;7.40;5.20;;;;;;;11.97;100.00;93549.63;2110986;27;20039;-78
2022/07/19 04:57:58;;;;;;;10.55;5.20;;;;;;;12.03;100.00;93560.63;2110791;28;20462;-78
2022/07/19 04:58:59;;;;;;;11.88;5.30;;;;;;;12.06;100.00;93549.06;2111779;28;20028;-77
2022/07/19 05:00:00;;;;;;;6.88;5.22;;;;;;;12.11;100.00;93548.56;2109295;28;20519;-79
2022/07/19 05:01:01;;;;;;;9.75;5.30;;;;;;;12.15;100.00;93545.81;2102563;28;20016;-77
2022/07/19 05:02:02;;;;;;;9.25;5.68;;;;;;;12.15;100.00;93551.19;2112114;27;20035;-77
2022/07/19 05:03:05;;;;;;;10.20;5.85;;;;;;;12.26;100.00;93549.06;2118552;27;20034;-77
2022/07/19 05:04:05;;;;;;;8.32;5.10;;;;;;;12.26;100.00;93547.13;2112627;27;20020;-79
2022/07/19 05:05:07;;;;;;;10.57;5.88;;;;;;;12.35;100.00;93551.91;2110943;28;20034;-79
2022/07/19 05:06:08;;;;;;;14.45;6.32;;;;;;;12.48;100.00;93547.41;2110913;28;20340;-77